createdAt,value
2018-07-21T00:00:36.628Z,81.45
2018-07-21T00:01:36.634Z,82.21
2018-07-21T00:02:36.637Z,82.12
2018-07-21T00:03:36.639Z,82.12
2018-07-21T00:04:36.643Z,82.03
2018-07-21T00:05:36.650Z,81.35
2018-07-21T00:06:36.645Z,82.41
2018-07-21T00:07:36.651Z,82.41
2018-07-21T00:08:36.653Z,82.12
2018-07-21T00:09:36.656Z,82.41
2018-07-21T00:10:36.658Z,82.21
2018-07-21T00:11:36.666Z,82.03
2018-07-21T00:12:36.671Z,81.45
2018-07-21T00:13:36.669Z,82.41
2018-07-21T00:14:36.673Z,82.21
2018-07-21T00:15:36.676Z,82.03
2018-07-21T00:16:36.677Z,82.60
2018-07-21T00:17:36.681Z,82.31
2018-07-21T00:18:36.684Z,82.60
2018-07-21T00:19:36.687Z,82.79
2018-07-21T00:20:36.690Z,82.79
2018-07-21T00:21:36.693Z,82.70
2018-07-21T00:22:36.697Z,82.60
2018-07-21T00:23:36.700Z,83.08
2018-07-21T00:24:36.702Z,82.31
2018-07-21T00:25:36.707Z,82.12
2018-07-21T00:26:36.708Z,82.03
2018-07-21T00:27:36.710Z,81.93
2018-07-21T00:28:36.715Z,82.41
2018-07-21T00:29:36.717Z,82.79
2018-07-21T00:30:36.726Z,83.27
2018-07-21T00:31:36.736Z,83.37
2018-07-21T00:32:36.728Z,83.08
2018-07-21T00:33:36.728Z,83.81
2018-07-21T00:34:36.737Z,83.61
2018-07-21T00:35:36.743Z,83.42
2018-07-21T00:36:36.737Z,83.52
2018-07-21T00:37:36.743Z,83.85
2018-07-21T00:38:36.742Z,83.91
2018-07-21T00:39:36.750Z,82.70
2018-07-21T00:40:36.748Z,81.84
2018-07-21T00:41:36.752Z,82.21
2018-07-21T00:42:36.756Z,82.89
2018-07-21T00:43:36.763Z,82.60
2018-07-21T00:44:36.761Z,82.51
2018-07-21T00:45:36.764Z,82.41
2018-07-21T00:46:36.769Z,82.60
2018-07-21T00:47:36.770Z,82.60
2018-07-21T00:48:36.775Z,82.89
2018-07-21T00:49:36.776Z,83.18
2018-07-21T00:50:36.779Z,82.89
2018-07-21T00:51:36.784Z,82.70
2018-07-21T00:52:36.787Z,83.37
2018-07-21T00:53:36.788Z,83.65
2018-07-21T00:54:36.789Z,83.65
2018-07-21T00:55:36.797Z,83.18
2018-07-21T00:56:36.799Z,83.37
2018-07-21T00:57:36.806Z,83.27
2018-07-21T00:58:36.803Z,83.37
2018-07-21T00:59:36.808Z,83.56
2018-07-21T01:00:36.811Z,83.75
2018-07-21T01:01:36.813Z,83.18
2018-07-21T01:02:36.815Z,83.18
2018-07-21T01:03:36.819Z,82.60
2018-07-21T01:04:36.823Z,83.18
2018-07-21T01:05:36.825Z,83.47
2018-07-21T01:06:36.829Z,83.65
2018-07-21T01:07:36.833Z,82.51
2018-07-21T01:08:36.835Z,83.56
2018-07-21T01:09:36.848Z,83.37
2018-07-21T01:10:36.841Z,83.27
2018-07-21T01:11:36.846Z,83.37
2018-07-21T01:12:36.847Z,83.47
2018-07-21T01:13:36.850Z,83.75
2018-07-21T01:14:36.855Z,83.94
2018-07-21T01:15:36.859Z,83.94
2018-07-21T01:16:36.887Z,83.75
2018-07-21T01:17:36.864Z,83.94
2018-07-21T01:18:36.863Z,83.61
2018-07-21T01:19:36.869Z,83.61
2018-07-21T01:20:36.869Z,83.81
2018-07-21T01:21:36.872Z,83.71
2018-07-21T01:22:36.877Z,84.09
2018-07-21T01:23:36.880Z,83.52
2018-07-21T01:24:36.894Z,83.23
2018-07-21T01:25:36.887Z,82.94
2018-07-21T01:26:36.893Z,83.65
2018-07-21T01:27:36.904Z,83.47
2018-07-21T01:28:36.904Z,83.18
2018-07-21T01:29:36.897Z,82.51
2018-07-21T01:30:36.902Z,83.27
2018-07-21T01:31:36.902Z,82.37
2018-07-21T01:32:36.907Z,83.04
2018-07-21T01:33:36.909Z,83.71
2018-07-21T01:34:36.913Z,83.61
2018-07-21T01:35:36.916Z,84.00
2018-07-21T01:36:36.926Z,84.58
2018-07-21T01:37:36.921Z,84.86
2018-07-21T01:38:36.931Z,85.53
2018-07-21T01:39:36.926Z,86.30
2018-07-21T01:40:36.930Z,86.58
2018-07-21T01:41:36.932Z,86.49
2018-07-21T01:42:36.938Z,86.68
2018-07-21T01:43:36.939Z,86.45
2018-07-21T01:44:36.942Z,87.45
2018-07-21T01:45:36.947Z,87.31
2018-07-21T01:46:36.950Z,87.31
2018-07-21T01:47:36.948Z,87.21
2018-07-21T01:48:36.960Z,87.31
2018-07-21T01:49:36.955Z,87.60
2018-07-21T01:50:36.958Z,87.60
2018-07-21T01:51:36.961Z,87.41
2018-07-21T01:52:36.965Z,87.21
2018-07-21T01:53:36.966Z,87.50
2018-07-21T01:54:36.983Z,87.70
2018-07-21T01:55:36.976Z,88.08
2018-07-21T01:56:36.973Z,87.98
2018-07-21T01:57:36.977Z,88.37
2018-07-21T01:58:36.983Z,88.37
2018-07-21T01:59:36.984Z,88.65
2018-07-21T02:00:36.987Z,89.32
2018-07-21T02:01:36.988Z,89.13
2018-07-21T02:02:36.998Z,89.04
2018-07-21T02:03:37.022Z,89.04
2018-07-21T02:04:37.021Z,88.65
2018-07-21T02:05:37.006Z,88.08
2018-07-21T02:06:37.000Z,88.37
2018-07-21T02:07:37.003Z,87.70
2018-07-21T02:08:37.007Z,88.46
2018-07-21T02:09:37.010Z,88.17
2018-07-21T02:10:37.015Z,88.37
2018-07-21T02:11:37.017Z,88.13
2018-07-21T02:12:37.062Z,87.55
2018-07-21T02:13:37.022Z,88.13
2018-07-21T02:14:37.023Z,88.61
2018-07-21T02:15:37.024Z,88.42
2018-07-21T02:16:37.030Z,89.18
2018-07-21T02:17:37.029Z,89.09
2018-07-21T02:18:37.035Z,89.09
2018-07-21T02:19:37.076Z,88.32
2018-07-21T02:20:37.037Z,88.61
2018-07-21T02:21:37.041Z,88.13
2018-07-21T02:22:37.103Z,88.13
2018-07-21T02:23:37.051Z,88.23
2018-07-21T02:24:37.048Z,88.23
2018-07-21T02:25:37.050Z,88.32
2018-07-21T02:26:37.051Z,88.32
2018-07-21T02:27:37.064Z,88.90
2018-07-21T02:28:37.057Z,89.09
2018-07-21T02:29:37.059Z,89.47
2018-07-21T02:30:37.064Z,89.76
2018-07-21T02:31:37.065Z,89.57
2018-07-21T02:32:37.067Z,89.37
2018-07-21T02:33:37.069Z,89.76
2018-07-21T02:34:37.077Z,89.57
2018-07-21T02:35:37.084Z,89.18
2018-07-21T02:36:37.075Z,88.99
2018-07-21T02:37:37.078Z,89.18
2018-07-21T02:38:37.092Z,89.76
2018-07-21T02:39:37.083Z,89.57
2018-07-21T02:40:37.085Z,89.18
2018-07-21T02:41:37.088Z,89.37
2018-07-21T02:42:37.088Z,89.28
2018-07-21T02:43:37.109Z,89.47
2018-07-21T02:44:37.097Z,89.76
2018-07-21T02:45:37.211Z,89.66
2018-07-21T02:46:37.099Z,89.37
2018-07-21T02:47:37.101Z,89.81
2018-07-21T02:48:37.107Z,89.81
2018-07-21T02:49:37.108Z,89.62
2018-07-21T02:50:37.115Z,89.62
2018-07-21T02:51:37.132Z,89.43
2018-07-21T02:52:37.113Z,89.72
2018-07-21T02:53:37.129Z,90.00
2018-07-21T02:54:37.117Z,90.58
2018-07-21T02:55:37.138Z,90.96
2018-07-21T02:56:37.126Z,90.58
2018-07-21T02:57:37.124Z,90.86
2018-07-21T02:58:37.124Z,90.58
2018-07-21T02:59:37.131Z,91.15
2018-07-21T03:00:37.132Z,91.34
2018-07-21T03:01:37.133Z,91.82
2018-07-21T03:02:37.133Z,91.34
2018-07-21T03:03:37.134Z,91.44
2018-07-21T03:04:37.136Z,91.53
2018-07-21T03:05:37.144Z,91.92
2018-07-21T03:06:37.141Z,91.53
2018-07-21T03:07:37.148Z,91.72
2018-07-21T03:08:37.147Z,91.15
2018-07-21T03:09:37.147Z,92.01
2018-07-21T03:10:37.153Z,91.72
2018-07-21T03:11:37.153Z,91.82
2018-07-21T03:12:37.159Z,91.72
2018-07-21T03:13:37.159Z,91.92
2018-07-21T03:14:37.159Z,91.72
2018-07-21T03:15:37.159Z,91.82
2018-07-21T03:16:37.168Z,92.11
2018-07-21T03:17:37.185Z,91.92
2018-07-21T03:18:37.165Z,91.92
2018-07-21T03:19:37.173Z,92.01
2018-07-21T03:20:37.173Z,91.53
2018-07-21T03:21:37.173Z,92.01
2018-07-21T03:22:37.173Z,91.82
2018-07-21T03:23:37.178Z,91.53
2018-07-21T03:24:37.180Z,92.11
2018-07-21T03:25:37.180Z,91.92
2018-07-21T03:26:37.178Z,91.34
2018-07-21T03:27:37.183Z,91.92
2018-07-21T03:28:37.187Z,91.72
2018-07-21T03:29:37.188Z,92.58
2018-07-21T03:30:37.190Z,92.68
2018-07-21T03:31:37.191Z,92.11
2018-07-21T03:32:37.194Z,92.11
2018-07-21T03:33:37.194Z,92.49
2018-07-21T03:34:37.200Z,92.68
2018-07-21T03:35:37.204Z,93.07
2018-07-21T03:36:37.202Z,93.07
2018-07-21T03:37:37.203Z,92.68
2018-07-21T03:38:37.208Z,93.45
2018-07-21T03:39:37.226Z,93.45
2018-07-21T03:40:37.257Z,93.26
2018-07-21T03:41:37.210Z,93.93
2018-07-21T03:42:37.211Z,93.26
2018-07-21T03:43:37.215Z,93.07
2018-07-21T03:44:37.220Z,92.58
2018-07-21T03:45:37.217Z,93.64
2018-07-21T03:46:37.221Z,93.07
2018-07-21T03:47:37.241Z,93.93
2018-07-21T03:48:37.226Z,94.12
2018-07-21T03:49:37.227Z,93.54
2018-07-21T03:50:37.229Z,93.83
2018-07-21T03:51:37.246Z,94.21
2018-07-21T03:52:37.241Z,94.60
2018-07-21T03:53:37.233Z,94.79
2018-07-21T03:54:37.236Z,93.98
2018-07-21T03:55:37.236Z,94.21
2018-07-21T03:56:37.236Z,94.21
2018-07-21T03:57:37.243Z,93.54
2018-07-21T03:58:37.247Z,94.07
2018-07-21T03:59:37.248Z,94.21
2018-07-21T04:00:37.312Z,93.26
2018-07-21T04:01:37.252Z,93.07
2018-07-21T04:02:37.252Z,93.35
2018-07-21T04:03:37.253Z,93.83
2018-07-21T04:04:37.256Z,93.74
2018-07-21T04:05:37.273Z,93.54
2018-07-21T04:06:37.262Z,94.21
2018-07-21T04:07:37.262Z,95.07
2018-07-21T04:08:37.261Z,95.17
2018-07-21T04:09:37.264Z,95.36
2018-07-21T04:10:37.272Z,95.17
2018-07-21T04:11:37.275Z,94.60
2018-07-21T04:12:37.272Z,94.50
2018-07-21T04:13:37.278Z,94.50
2018-07-21T04:14:37.274Z,94.89
2018-07-21T04:15:37.277Z,96.03
2018-07-21T04:16:37.279Z,96.27
2018-07-21T04:17:37.280Z,97.52
2018-07-21T04:18:37.296Z,97.23
2018-07-21T04:19:37.286Z,97.42
2018-07-21T04:20:37.289Z,97.42
2018-07-21T04:21:37.288Z,97.52
2018-07-21T04:22:37.294Z,98.38
2018-07-21T04:23:37.295Z,98.19
2018-07-21T04:24:37.296Z,98.38
2018-07-21T04:25:37.296Z,98.19
2018-07-21T04:26:37.295Z,97.71
2018-07-21T04:27:37.300Z,97.52
2018-07-21T04:28:37.301Z,97.71
2018-07-21T04:29:37.300Z,97.13
2018-07-21T04:30:37.303Z,97.09
2018-07-21T04:31:37.308Z,96.22
2018-07-21T04:32:37.310Z,95.56
2018-07-21T04:33:37.309Z,94.69
2018-07-21T04:34:37.311Z,94.12
2018-07-21T04:35:37.314Z,94.89
2018-07-21T04:36:37.314Z,95.56
2018-07-21T04:37:37.316Z,95.36
2018-07-21T04:38:37.316Z,95.65
2018-07-21T04:39:37.332Z,96.03
2018-07-21T04:40:37.328Z,96.13
2018-07-21T04:41:37.325Z,96.80
2018-07-21T04:42:37.329Z,96.61
2018-07-21T04:43:37.329Z,97.38
2018-07-21T04:44:37.330Z,97.28
2018-07-21T04:45:37.332Z,97.28
2018-07-21T04:46:37.339Z,97.66
2018-07-21T04:47:37.338Z,98.43
2018-07-21T04:48:37.339Z,98.24
2018-07-21T04:49:37.338Z,98.14
2018-07-21T04:50:37.343Z,98.05
2018-07-21T04:51:37.349Z,98.33
2018-07-21T04:52:37.348Z,98.05
2018-07-21T04:53:37.350Z,98.33
2018-07-21T04:54:37.353Z,98.38
2018-07-21T04:55:37.353Z,98.00
2018-07-21T04:56:37.352Z,97.33
2018-07-21T04:57:37.357Z,97.14
2018-07-21T04:58:37.359Z,97.61
2018-07-21T04:59:37.364Z,96.94
2018-07-21T05:00:37.387Z,97.71
2018-07-21T05:01:37.369Z,97.56
2018-07-21T05:02:37.368Z,97.66
2018-07-21T05:03:37.371Z,99.87
2018-07-21T05:04:37.376Z,99.96
2018-07-21T05:05:37.373Z,99.48
2018-07-21T05:06:37.383Z,99.39
2018-07-21T05:07:37.380Z,99.29
2018-07-21T05:08:37.383Z,99.99
2018-07-21T05:09:37.385Z,99.99
2018-07-21T05:10:37.387Z,99.99
2018-07-21T05:11:37.390Z,99.99
2018-07-21T05:12:37.391Z,99.05
2018-07-21T05:13:37.394Z,99.05
2018-07-21T05:14:37.399Z,98.67
2018-07-21T05:15:37.399Z,98.38
2018-07-21T05:16:37.401Z,97.61
2018-07-21T05:17:37.403Z,96.94
2018-07-21T05:18:37.406Z,96.13
2018-07-21T05:19:37.419Z,95.17
2018-07-21T05:20:37.413Z,96.22
2018-07-21T05:21:37.414Z,97.09
2018-07-21T05:22:37.417Z,96.89
2018-07-21T05:23:37.419Z,97.66
2018-07-21T05:24:37.422Z,96.32
2018-07-21T05:25:37.428Z,95.89
2018-07-21T05:26:37.434Z,95.41
2018-07-21T05:27:37.458Z,94.35
2018-07-21T05:28:37.709Z,92.53
2018-07-21T05:29:37.438Z,92.63
2018-07-21T05:30:37.440Z,89.17
2018-07-21T05:31:37.445Z,88.69
2018-07-21T05:32:37.451Z,88.40
2018-07-21T05:33:37.452Z,88.45
2018-07-21T05:34:37.462Z,88.54
2018-07-21T05:35:37.458Z,88.73
2018-07-21T05:36:37.460Z,88.35
2018-07-21T05:37:37.461Z,88.01
2018-07-21T05:38:37.468Z,87.72
2018-07-21T05:39:37.472Z,88.20
2018-07-21T05:40:37.476Z,88.20
2018-07-21T05:41:37.476Z,88.01
2018-07-21T05:42:37.480Z,89.40
2018-07-21T05:43:37.489Z,90.17
2018-07-21T05:44:37.487Z,90.51
2018-07-21T05:45:37.492Z,91.03
2018-07-21T05:46:37.501Z,90.31
2018-07-21T05:47:37.500Z,90.17
2018-07-21T05:48:37.505Z,89.88
2018-07-21T05:49:37.507Z,89.98
2018-07-21T05:50:37.511Z,89.40
2018-07-21T05:51:37.514Z,89.06
2018-07-21T05:52:37.519Z,88.10
2018-07-21T05:53:37.521Z,87.52
2018-07-21T05:54:37.574Z,86.85
2018-07-21T05:55:37.529Z,85.83
2018-07-21T05:56:37.533Z,84.97
2018-07-21T05:57:37.537Z,84.48
2018-07-21T05:58:37.542Z,83.72
2018-07-21T05:59:37.547Z,82.70
2018-07-21T06:00:37.555Z,82.41
2018-07-21T06:01:37.554Z,81.54
2018-07-21T06:02:37.585Z,80.19
2018-07-21T06:03:37.564Z,81.01
2018-07-21T06:04:37.585Z,82.54
2018-07-21T06:05:37.571Z,82.74
2018-07-21T06:06:37.574Z,82.83
2018-07-21T06:07:37.581Z,82.35
2018-07-21T06:08:37.634Z,80.29
2018-07-21T06:09:37.589Z,79.61
2018-07-21T06:10:37.594Z,79.61
2018-07-21T06:11:37.597Z,80.23
2018-07-21T06:12:37.604Z,79.46
2018-07-21T06:13:37.606Z,79.75
2018-07-21T06:14:37.612Z,78.40
2018-07-21T06:15:37.617Z,77.73
2018-07-21T06:16:37.622Z,77.53
2018-07-21T06:17:37.626Z,74.93
2018-07-21T06:18:37.640Z,75.13
2018-07-21T06:19:37.635Z,74.07
2018-07-21T06:20:37.641Z,74.49
2018-07-21T06:21:37.654Z,75.36
2018-07-21T06:22:37.676Z,75.84
2018-07-21T06:23:37.676Z,77.28
2018-07-21T06:24:37.657Z,77.28
2018-07-21T06:25:37.663Z,76.86
2018-07-21T06:26:37.667Z,76.03
2018-07-21T06:27:37.686Z,73.68
2018-07-21T06:28:37.678Z,75.23
2018-07-21T06:29:37.682Z,75.13
2018-07-21T06:30:37.688Z,74.45
2018-07-21T06:31:37.692Z,74.10
2018-07-21T06:32:37.698Z,73.33
2018-07-21T06:33:37.702Z,72.56
2018-07-21T06:34:37.709Z,71.25
2018-07-21T06:35:37.745Z,70.76
2018-07-21T06:36:37.752Z,70.80
2018-07-21T06:37:37.722Z,69.55
2018-07-21T06:38:37.727Z,68.77
2018-07-21T06:39:37.732Z,68.97
2018-07-21T06:40:37.737Z,70.36
2018-07-21T06:41:37.757Z,69.10
2018-07-21T06:42:37.748Z,68.52
2018-07-21T06:43:37.749Z,68.91
2018-07-21T06:44:37.758Z,68.71
2018-07-21T06:45:37.764Z,69.29
2018-07-21T06:46:37.811Z,68.62
2018-07-21T06:47:37.780Z,68.62
2018-07-21T06:48:37.791Z,69.16
2018-07-21T06:49:37.834Z,70.94
2018-07-21T06:50:37.789Z,69.78
2018-07-21T06:51:37.794Z,69.00
2018-07-21T06:52:37.812Z,69.20
2018-07-21T06:53:38.009Z,68.62
2018-07-21T06:54:37.810Z,68.01
2018-07-21T06:55:37.815Z,68.04
2018-07-21T06:56:37.821Z,67.14
2018-07-21T06:57:37.826Z,67.14
2018-07-21T06:58:37.831Z,68.04
2018-07-21T06:59:37.838Z,67.94
2018-07-21T07:00:37.842Z,67.94
2018-07-21T07:01:37.853Z,68.17
2018-07-21T07:02:37.853Z,67.30
2018-07-21T07:03:37.858Z,67.30
2018-07-21T07:04:37.875Z,67.01
2018-07-21T07:05:37.868Z,66.33
2018-07-21T07:06:37.875Z,65.47
2018-07-21T07:07:37.881Z,66.43
2018-07-21T07:08:37.886Z,64.95
2018-07-21T07:09:37.890Z,65.24
2018-07-21T07:10:37.902Z,66.20
2018-07-21T07:11:37.900Z,66.01
2018-07-21T07:12:37.912Z,66.59
2018-07-21T07:13:37.913Z,67.17
2018-07-21T07:14:37.918Z,67.07
2018-07-21T07:15:37.926Z,65.72
2018-07-21T07:16:37.931Z,65.91
2018-07-21T07:17:37.934Z,65.53
2018-07-21T07:18:37.940Z,66.30
2018-07-21T07:19:37.946Z,64.18
2018-07-21T07:20:37.953Z,64.86
2018-07-21T07:21:37.955Z,65.05
2018-07-21T07:22:37.965Z,63.79
2018-07-21T07:23:37.968Z,63.98
2018-07-21T07:24:37.974Z,64.37
2018-07-21T07:25:37.983Z,64.66
2018-07-21T07:26:37.995Z,65.05
2018-07-21T07:27:37.991Z,64.56
2018-07-21T07:28:37.996Z,64.18
2018-07-21T07:29:38.002Z,63.21
2018-07-21T07:30:38.006Z,62.73
2018-07-21T07:31:38.012Z,63.98
2018-07-21T07:32:38.016Z,63.31
2018-07-21T07:33:38.026Z,62.63
2018-07-21T07:34:38.027Z,62.92
2018-07-21T07:35:38.033Z,62.76
2018-07-21T07:36:38.068Z,61.31
2018-07-21T07:37:38.070Z,60.83
2018-07-21T07:38:38.049Z,60.35
2018-07-21T07:39:38.056Z,60.35
2018-07-21T07:40:38.060Z,60.16
2018-07-21T07:41:38.076Z,60.64
2018-07-21T07:42:38.071Z,61.12
2018-07-21T07:43:38.077Z,61.60
2018-07-21T07:44:38.083Z,61.86
2018-07-21T07:45:38.092Z,62.54
2018-07-21T07:46:38.093Z,62.54
2018-07-21T07:47:38.121Z,63.79
2018-07-21T07:48:38.110Z,65.14
2018-07-21T07:49:38.108Z,65.63
2018-07-21T07:50:38.125Z,66.49
2018-07-21T07:51:38.121Z,66.97
2018-07-21T07:52:38.126Z,67.46
2018-07-21T07:53:38.135Z,67.94
2018-07-21T07:54:38.137Z,67.46
2018-07-21T07:55:38.143Z,67.17
2018-07-21T07:56:38.151Z,67.55
2018-07-21T07:57:38.161Z,67.55
2018-07-21T07:58:38.160Z,68.04
2018-07-21T07:59:38.180Z,68.04
2018-07-21T08:00:38.172Z,67.17
2018-07-21T08:01:38.175Z,68.04
2018-07-21T08:02:38.182Z,67.46
2018-07-21T08:03:38.192Z,67.46
2018-07-21T08:04:38.204Z,66.97
2018-07-21T08:05:38.207Z,67.17
2018-07-21T08:06:38.203Z,68.43
2018-07-21T08:07:38.232Z,67.65
2018-07-21T08:08:38.295Z,67.65
2018-07-21T08:09:38.232Z,67.65
2018-07-21T08:10:38.250Z,67.75
2018-07-21T08:11:38.233Z,67.46
2018-07-21T08:12:38.326Z,68.04
2018-07-21T08:13:38.277Z,67.55
2018-07-21T08:14:38.262Z,68.13
2018-07-21T08:15:38.253Z,68.13
2018-07-21T08:16:38.272Z,67.94
2018-07-21T08:17:38.290Z,68.17
2018-07-21T08:18:38.265Z,68.17
2018-07-21T08:19:38.278Z,67.20
2018-07-21T08:20:38.285Z,67.69
2018-07-21T08:21:38.308Z,67.20
2018-07-21T08:22:38.289Z,67.11
2018-07-21T08:23:38.299Z,66.72
2018-07-21T08:24:38.346Z,66.33
2018-07-21T08:25:38.336Z,66.43
2018-07-21T08:26:38.317Z,65.08
2018-07-21T08:27:38.318Z,65.27
2018-07-21T08:28:38.369Z,66.43
2018-07-21T08:29:38.337Z,66.43
2018-07-21T08:30:38.358Z,66.63
2018-07-21T08:31:40.100Z,66.05
2018-07-21T08:32:38.347Z,65.56
2018-07-21T08:33:38.365Z,67.30
2018-07-21T08:34:38.417Z,67.20
2018-07-21T08:35:38.389Z,67.91
2018-07-21T08:36:38.396Z,66.94
2018-07-21T08:37:38.406Z,67.33
2018-07-21T08:38:38.390Z,66.56
2018-07-21T08:39:38.384Z,65.88
2018-07-21T08:40:38.418Z,66.08
2018-07-21T08:41:38.453Z,66.36
2018-07-21T08:43:31.480Z,67.33
2018-07-21T08:44:31.332Z,67.14
2018-07-21T08:46:24.206Z,67.62
2018-07-21T08:47:24.257Z,66.72
2018-07-21T08:49:17.146Z,67.88
2018-07-21T08:50:17.146Z,68.17
2018-07-21T08:52:10.066Z,67.78
2018-07-21T08:53:10.043Z,68.07
2018-07-21T08:55:03.044Z,68.07
2018-07-21T08:56:03.028Z,68.26
2018-07-21T08:57:56.381Z,69.04
2018-07-21T08:58:56.366Z,70.20
2018-07-21T09:00:50.244Z,71.22
2018-07-21T09:01:50.196Z,71.42
2018-07-21T09:03:42.769Z,71.32
2018-07-21T09:04:42.719Z,71.26
2018-07-21T09:06:36.365Z,72.52
2018-07-21T09:07:36.356Z,72.61
2018-07-21T09:09:29.077Z,72.48
2018-07-21T09:10:29.093Z,73.19
2018-07-21T09:12:22.274Z,73.28
2018-07-21T09:13:21.959Z,73.19
2018-07-21T09:15:14.907Z,72.71
2018-07-21T09:16:14.847Z,72.13
2018-07-21T09:18:07.796Z,70.78
2018-07-21T09:19:07.752Z,71.36
2018-07-21T09:21:01.051Z,71.74
2018-07-21T09:22:00.639Z,70.78
2018-07-21T09:23:54.123Z,71.22
2018-07-21T09:24:54.041Z,72.67
2018-07-21T09:26:47.945Z,72.19
2018-07-21T09:27:47.900Z,72.19
2018-07-21T09:29:41.334Z,71.42
2018-07-21T09:30:41.317Z,71.77
2018-07-21T09:32:34.703Z,73.11
2018-07-21T09:33:34.231Z,73.11
2018-07-21T09:34:34.242Z,74.27
2018-07-21T09:35:34.699Z,73.89
2018-07-21T09:36:34.210Z,74.95
2018-07-21T09:37:34.213Z,75.27
2018-07-21T09:38:34.221Z,74.76
2018-07-21T09:39:34.224Z,75.67
2018-07-21T09:40:34.231Z,76.43
2018-07-21T09:41:34.233Z,76.92
2018-07-21T09:42:34.243Z,77.21
2018-07-21T09:43:34.253Z,77.98
2018-07-21T09:44:34.250Z,79.33
2018-07-21T09:45:34.253Z,79.81
2018-07-21T09:46:34.529Z,80.20
2018-07-21T09:47:34.299Z,80.97
2018-07-21T09:48:34.274Z,81.70
2018-07-21T09:49:34.277Z,83.25
2018-07-21T09:50:34.282Z,83.25
2018-07-21T09:51:34.289Z,84.31
2018-07-21T09:52:34.292Z,85.37
2018-07-21T09:53:34.299Z,86.33
2018-07-21T09:54:34.330Z,87.20
2018-07-21T09:55:34.388Z,88.07
2018-07-21T09:56:34.334Z,88.51
2018-07-21T09:57:34.323Z,88.99
2018-07-21T09:58:34.326Z,91.98
2018-07-21T09:59:34.336Z,94.78
2018-07-21T10:00:34.334Z,94.48
2018-07-21T10:01:34.399Z,95.06
2018-07-21T10:02:34.351Z,94.24
2018-07-21T10:03:34.351Z,96.37
2018-07-21T10:04:34.357Z,97.42
2018-07-21T10:05:34.364Z,98.00
2018-07-21T10:06:34.369Z,98.49
2018-07-21T10:07:34.376Z,99.93
2018-07-21T10:08:34.378Z,99.93
2018-07-21T10:09:34.382Z,99.99
2018-07-21T10:11:27.329Z,99.35
2018-07-21T10:12:27.315Z,99.99
2018-07-21T10:14:20.278Z,99.99
2018-07-21T10:15:20.200Z,99.99
2018-07-21T10:17:13.323Z,99.99
2018-07-21T10:18:13.064Z,99.99
2018-07-21T10:20:06.399Z,99.99
2018-07-21T10:21:05.970Z,99.99
2018-07-21T10:22:59.073Z,99.99
2018-07-21T10:23:58.839Z,99.99
2018-07-21T10:25:52.675Z,99.99
2018-07-21T10:26:52.284Z,99.99
2018-07-21T10:28:46.271Z,99.99
2018-07-21T10:29:45.968Z,99.99
2018-07-21T10:31:39.630Z,99.99
2018-07-21T10:32:39.251Z,99.99
2018-07-21T10:34:32.792Z,99.99
2018-07-21T10:35:33.199Z,99.99
2018-07-21T10:37:25.582Z,99.99
2018-07-21T10:38:25.551Z,99.99
2018-07-21T10:39:25.480Z,99.99
2018-07-21T10:40:25.572Z,99.99
2018-07-21T10:41:25.712Z,99.99
2018-07-21T10:42:25.506Z,99.99
2018-07-21T10:43:25.485Z,99.99
2018-07-21T10:44:25.527Z,99.99
2018-07-21T10:45:25.502Z,99.99
2018-07-21T10:46:25.498Z,99.99
2018-07-21T10:47:25.512Z,99.99
2018-07-21T10:48:25.509Z,99.99
2018-07-21T10:49:25.513Z,99.99
2018-07-21T10:50:25.519Z,99.99
2018-07-21T10:51:25.522Z,99.99
2018-07-21T10:52:25.529Z,99.99
2018-07-21T10:53:25.533Z,99.21
2018-07-21T10:54:25.541Z,99.11
2018-07-21T10:55:25.540Z,99.50
2018-07-21T10:56:25.553Z,99.99
2018-07-21T10:57:25.553Z,99.99
2018-07-21T10:58:25.562Z,99.79
2018-07-21T10:59:25.564Z,98.97
2018-07-21T11:00:25.570Z,99.40
2018-07-21T11:01:25.573Z,99.26
2018-07-21T11:02:25.599Z,99.64
2018-07-21T11:03:25.586Z,97.76
2018-07-21T11:04:25.592Z,96.70
2018-07-21T11:05:25.592Z,97.24
2018-07-21T11:06:25.602Z,99.26
2018-07-21T11:07:25.605Z,99.99
2018-07-21T11:08:25.607Z,99.74
2018-07-21T11:09:25.611Z,97.76
2018-07-21T11:10:25.614Z,96.99
2018-07-21T11:11:25.622Z,97.38
2018-07-21T11:12:25.625Z,98.34
2018-07-21T11:13:25.633Z,97.76
2018-07-21T11:14:25.636Z,97.38
2018-07-21T11:15:25.703Z,98.05
2018-07-21T11:16:25.645Z,97.09
2018-07-21T11:17:25.673Z,97.86
2018-07-21T11:18:25.656Z,99.99
2018-07-21T11:19:25.661Z,99.99
2018-07-21T11:20:25.664Z,99.99
2018-07-21T11:21:25.670Z,99.99
2018-07-21T11:22:25.674Z,99.99
2018-07-21T11:23:25.682Z,99.93
2018-07-21T11:24:25.684Z,99.99
2018-07-21T11:25:25.688Z,99.99
2018-07-21T11:26:25.698Z,99.99
2018-07-21T11:27:25.698Z,99.99
2018-07-21T11:28:25.704Z,99.99
2018-07-21T11:29:25.708Z,99.99
2018-07-21T11:30:25.713Z,99.99
2018-07-21T11:31:25.724Z,99.99
2018-07-21T11:32:25.722Z,99.99
2018-07-21T11:33:25.728Z,99.99
2018-07-21T11:34:25.731Z,99.99
2018-07-21T11:35:25.759Z,99.99
2018-07-21T11:36:25.760Z,99.99
2018-07-21T11:37:25.745Z,99.99
2018-07-21T11:38:25.749Z,99.99
2018-07-21T11:39:25.754Z,99.99
2018-07-21T11:40:25.760Z,99.99
2018-07-21T11:41:25.764Z,99.99
2018-07-21T11:42:25.768Z,99.99
2018-07-21T11:43:25.777Z,99.99
2018-07-21T11:44:25.831Z,99.99
2018-07-21T11:45:25.788Z,99.99
2018-07-21T11:46:25.787Z,99.99
2018-07-21T11:47:25.791Z,99.99
2018-07-21T11:48:25.805Z,99.99
2018-07-21T11:49:25.798Z,99.99
2018-07-21T11:50:25.807Z,99.99
2018-07-21T11:51:25.809Z,99.99
2018-07-21T11:52:25.815Z,99.99
2018-07-21T11:53:25.819Z,99.99
2018-07-21T11:54:25.822Z,99.99
2018-07-21T11:55:25.826Z,99.99
2018-07-21T11:56:25.830Z,99.99
2018-07-21T11:57:25.831Z,99.99
2018-07-21T11:58:25.839Z,99.99
2018-07-21T11:59:25.841Z,99.99
2018-07-21T12:00:25.849Z,99.99
2018-07-21T12:01:25.851Z,99.99
2018-07-21T12:02:25.860Z,99.99
2018-07-21T12:03:25.861Z,99.99
2018-07-21T12:04:25.875Z,99.99
2018-07-21T12:05:25.937Z,99.99
2018-07-21T12:06:25.874Z,99.99
2018-07-21T12:07:25.879Z,99.99
2018-07-21T12:08:25.883Z,99.99
2018-07-21T12:09:25.887Z,99.99
2018-07-21T12:10:25.891Z,99.99
2018-07-21T12:11:25.896Z,99.99
2018-07-21T12:12:25.899Z,99.99
2018-07-21T12:13:25.975Z,99.99
2018-07-21T12:14:25.910Z,99.99
2018-07-21T12:15:25.913Z,99.99
2018-07-21T12:16:25.917Z,99.99
2018-07-21T12:17:25.923Z,99.99
2018-07-21T12:18:25.926Z,99.99
2018-07-21T12:19:25.931Z,99.99
2018-07-21T12:20:26.005Z,99.99
2018-07-21T12:21:25.937Z,99.99
2018-07-21T12:22:25.948Z,99.99
2018-07-21T12:23:25.948Z,99.99
2018-07-21T12:24:25.951Z,99.99
2018-07-21T12:25:25.953Z,99.99
2018-07-21T12:26:25.967Z,99.99
2018-07-21T12:27:26.020Z,99.99
2018-07-21T12:28:25.986Z,99.99
2018-07-21T12:29:25.985Z,99.99
2018-07-21T12:30:25.978Z,99.99
2018-07-21T12:31:25.995Z,99.99
2018-07-21T12:32:25.987Z,99.99
2018-07-21T12:33:25.989Z,99.99
2018-07-21T12:34:25.997Z,99.99
2018-07-21T12:35:25.998Z,99.99
2018-07-21T12:36:26.003Z,99.99
2018-07-21T12:37:26.006Z,99.99
2018-07-21T12:38:26.012Z,99.99
2018-07-21T12:39:26.015Z,99.99
2018-07-21T12:40:26.020Z,99.99
2018-07-21T12:41:26.024Z,99.99
2018-07-21T12:42:26.029Z,99.99
2018-07-21T12:43:26.032Z,99.99
2018-07-21T12:44:26.036Z,99.99
2018-07-21T12:45:26.040Z,99.99
2018-07-21T12:46:26.047Z,99.99
2018-07-21T12:47:26.052Z,99.99
2018-07-21T12:48:26.054Z,99.99
2018-07-21T12:49:26.055Z,99.99
2018-07-21T12:50:26.072Z,99.99
2018-07-21T12:51:26.072Z,99.99
2018-07-21T12:52:26.073Z,99.99
2018-07-21T12:53:26.085Z,99.99
2018-07-21T12:54:26.082Z,99.99
2018-07-21T12:55:26.103Z,99.99
2018-07-21T12:56:26.086Z,99.99
2018-07-21T12:57:26.090Z,99.99
2018-07-21T12:58:26.104Z,99.99
2018-07-21T12:59:26.111Z,99.99
2018-07-21T13:00:26.102Z,99.99
2018-07-21T13:01:26.107Z,99.99
2018-07-21T13:02:26.112Z,99.99
2018-07-21T13:03:26.128Z,99.99
2018-07-21T13:04:26.120Z,99.99
2018-07-21T13:05:26.127Z,99.99
2018-07-21T13:06:26.131Z,99.99
2018-07-21T13:07:26.135Z,99.99
2018-07-21T13:08:26.137Z,99.99
2018-07-21T13:09:26.142Z,99.99
2018-07-21T13:10:26.152Z,99.99
2018-07-21T13:11:26.151Z,99.99
2018-07-21T13:12:26.159Z,99.99
2018-07-21T13:13:26.160Z,99.99
2018-07-21T13:14:26.163Z,99.99
2018-07-21T13:15:26.167Z,99.99
2018-07-21T13:16:26.172Z,99.99
2018-07-21T13:17:26.176Z,99.99